Flight Track Log - Related Links

Times and Time Zones

All times are in EDT time to prevent confusion due to time zone crossing. See the N612CT flight status page for this flight to view local times or setup timezone preferences in your user account.

Time Position Orientation Groundspeed Altitude Reporting Facility
EDT Latitude Longitude Course Direction KTS MPH feet Rate Location/Type
Thu 06:37:00 AM 26.4379 -81.8000 North  Level FlightAware Approximate
Thu 06:38:00 AM 26.4862 -81.8020 355° North  Level FlightAware Approximate
Thu 06:39:00 AM 26.5343 -81.8071 355° North  Level FlightAware Approximate
Thu 06:40:00 AM 26.5824 -81.8121 355° North  Level FlightAware Approximate
Thu 06:41:00 AM 26.6305 -81.8172 355° North  Level FlightAware Approximate
Thu 06:42:00 AM 26.6786 -81.8222 355° North  Level FlightAware Approximate
Thu 06:43:00 AM 26.7267 -81.8273 355° North  Level FlightAware Approximate
Thu 06:44:00 AM 26.7749 -81.8324 355° North  Level FlightAware Approximate
Thu 06:45:00 AM 26.8230 -81.8374 355° North  Level FlightAware Approximate
Thu 06:46:00 AM 26.8711 -81.8425 355° North  Level FlightAware Approximate
Thu 06:46:19 AM 26.8211 -81.8700 355° North 173 199 8,000  Level Miami Center
Thu 06:47:00 AM 26.9192 -81.8476 355° North  Level FlightAware Approximate
Thu 06:47:19 AM 26.8689 -81.8767 353° North 184 212 8,000  Level Miami Center
Thu 06:48:00 AM 26.9673 -81.8526 355° North  Level FlightAware Approximate
Thu 06:48:19 AM 26.9169 -81.8811 355° North 179 206 7,900  Level Miami Center
Thu 06:49:00 AM 27.0154 -81.8577 355° North  Level FlightAware Approximate
Thu 06:49:19 AM 26.9647 -81.8878 353° North 179 206 7,900  Level Miami Center
Thu 06:50:00 AM 27.0636 -81.8628 355° North  Level FlightAware Approximate
Thu 06:50:19 AM 27.0144 -81.8947 353° North 179 206 7,900  Level Miami Center
Thu 06:51:19 AM 27.0622 -81.9014 353° North 179 206 7,900  Level Miami Center
Thu 06:52:19 AM 27.1122 -81.9083 353° North 179 206 7,900  Level Miami Center
Thu 06:53:19 AM 27.1600 -81.9128 355° North 179 206 7,900  Level Miami Center
Thu 06:54:19 AM 27.2078 -81.9172 355° North 179 206 7,900  Level Miami Center
Thu 06:55:19 AM 27.2556 -81.9239 353° North 179 206 7,900 50 Level Miami Center
Thu 06:56:19 AM 27.3033 -81.9306 353° North 179 206 8,000 50 Climbing Miami Center
Thu 06:57:19 AM 27.3511 -81.9350 355° North 179 206 8,000  Level Miami Center
Thu 06:58:19 AM 27.3989 -81.9419 353° North 179 206 8,000  Level Miami Center
Thu 06:59:19 AM 27.4467 -81.9486 353° North 179 206 8,000  Level Miami Center
Thu 07:00:19 AM 27.4944 -81.9531 355° North 179 206 8,000  Level Miami Center
Thu 07:01:19 AM 27.5444 -81.9578 355° North 174 200 8,000  Level Miami Center
Thu 07:02:19 AM 27.5922 -81.9644 353° North 169 194 8,000  Level Miami Center
Thu 07:03:19 AM 27.6400 -81.9689 355° North 169 194 8,000  Level Miami Center
Thu 07:04:19 AM 27.6797 -81.9731 355° North 164 189 8,000  Level Miami Center
Thu 07:05:19 AM 27.7336 -81.9803 353° North 164 189 8,000  Level Miami Center
Thu 07:06:19 AM 27.7772 -81.9869 352° North 159 183 8,000  Level Miami Center
Thu 07:07:19 AM 27.8269 -81.9961 351° North 159 183 8,000  Level Miami Center
Thu 07:08:45 AM 27.9000 -82.0000 357° North 164 189 8,000  Level Tampa TRACON
Thu 07:09:51 AM 27.9500 -82.0167 344° North 164 189 8,000  Level Tampa TRACON
Thu 07:10:51 AM 27.9833 -82.0167 360° North 165 190 8,000  Level Tampa TRACON
Thu 07:11:45 AM 28.0167 -82.0333 336° Northwest 157 181 8,000 -158 Level Tampa TRACON
Thu 07:12:45 AM 28.0667 -82.0667 330° Northwest 159 183 7,700 -397 Descending Tampa TRACON
Thu 07:13:46 AM 28.1000 -82.0833 336° Northwest 173 199 7,200 -470 Descending Tampa TRACON
Thu 07:14:40 AM 28.1333 -82.1167 319° Northwest 179 206 6,800 -500 Descending Tampa TRACON
Thu 07:15:46 AM 28.1833 -82.1500 330° Northwest 181 208 6,200 -364 Descending Tampa TRACON
Thu 07:16:52 AM 28.2333 -82.1667 344° North 181 208 6,000 -100 Descending Tampa TRACON
Thu 07:17:46 AM 28.2833 -82.2000 330° Northwest 173 199 6,000  Level Tampa TRACON
Thu 07:18:58 AM 28.3167 -82.2333 319° Northwest 168 193 6,000  Level Tampa TRACON
Thu 07:19:52 AM 28.3667 -82.2500 344° North 172 198 6,000  Level Tampa TRACON
Thu 07:20:58 AM 28.4167 -82.2833 330° Northwest 174 200 6,000  Level Tampa TRACON
Thu 07:23:23 AM 28.5097 -82.3492 328° Northwest 172 198 6,000  Level Jacksonville Center
Thu 07:24:30 AM 28.5517 -82.3725 334° Northwest 170 196 6,000  Level Jacksonville Center
Thu 07:25:43 AM 28.6019 -82.4056 330° Northwest 169 194 6,000  Level Jacksonville Center
Thu 07:26:44 AM 28.6458 -82.4336 331° Northwest 173 199 6,000  Level Jacksonville Center
Thu 07:27:32 AM 28.6833 -82.4594 329° Northwest 174 200 6,000  Level Jacksonville Center
Thu 07:28:39 AM 28.7314 -82.4878 333° Northwest 171 197 6,000  Level Jacksonville Center
Thu 07:29:40 AM 28.7714 -82.5158 328° Northwest 173 199 6,000  Level Jacksonville Center
Thu 07:30:40 AM 28.8153 -82.5442 331° Northwest 173 199 6,000 -198 Level Jacksonville Center
Thu 07:31:41 AM 28.8569 -82.5703 331° Northwest 176 203 5,600 -443 Descending Jacksonville Center
Thu 07:32:42 AM 28.9031 -82.6008 330° Northwest 191 220 5,100 -475 Descending Jacksonville Center
Thu 07:33:22 AM 28.9386 -82.6197 335° Northwest 193 222 4,800 -545 Descending Jacksonville Center
Thu 07:33:37 AM 28.9469 -82.6269 323° Northwest 193 222 4,600 -500 Descending Jacksonville Center
Thu 07:34:22 AM 28.9825 -82.6506 330° Northwest 193 222 4,300 -444 Descending Jacksonville Center
Thu 07:34:31 AM 28.9886 -82.6553 326° Northwest 192 221 4,200 -200 Descending Jacksonville Center
Thu 07:35:22 AM 29.0306 -82.6789 334° Northwest 193 222 4,100 -197 Descending Jacksonville Center
Thu 07:35:32 AM 29.0367 -82.6836 326° Northwest 192 221 4,000  Descending Jacksonville Center
Thu 07:36:22 AM 29.0744 -82.7097 329° Northwest 193 222 4,100 55 Climbing Jacksonville Center
Thu 07:37:22 AM 29.1183 -82.7381 331° Northwest 182 209 4,100  Level Jacksonville Center
Thu 07:38:22 AM 29.1642 -82.7667 331° Northwest 182 209 4,100  Level Jacksonville Center
Thu 07:39:22 AM 29.2081 -82.7950 331° Northwest 182 209 4,100  Level Jacksonville Center
Thu 07:40:22 AM 29.2519 -82.8236 330° Northwest 182 209 4,100  Level Jacksonville Center
Thu 07:41:22 AM 29.2958 -82.8522 330° Northwest 182 209 4,100  Level Jacksonville Center
Thu 07:42:22 AM 29.3394 -82.8806 330° Northwest 182 209 4,100  Level Jacksonville Center
Thu 07:43:22 AM 29.3856 -82.9092 332° Northwest 182 209 4,100  Level Jacksonville Center
Thu 07:44:22 AM 29.4314 -82.9378 331° Northwest 182 209 4,100  Level Jacksonville Center
Thu 07:45:22 AM 29.4753 -82.9689 328° Northwest 182 209 4,100  Level Jacksonville Center
Thu 07:46:22 AM 29.5211 -82.9975 331° Northwest 187 215 4,100  Level Jacksonville Center
Thu 07:47:22 AM 29.5650 -83.0264 330° Northwest 182 209 4,100  Level Jacksonville Center
Thu 07:48:22 AM 29.6047 -83.0622 322° Northwest 182 209 4,100  Level Jacksonville Center
Thu 07:49:22 AM 29.6317 -83.1006 309° West 182 209 4,100  Level Jacksonville Center
Thu 07:50:22 AM 29.6608 -83.1483 305° West 182 209 4,100  Level Jacksonville Center
Thu 07:51:22 AM 29.6878 -83.1939 304° West 177 204 4,100  Level Jacksonville Center
Thu 07:52:22 AM 29.7169 -83.2417 305° West 177 204 4,100  Level Jacksonville Center
Thu 07:53:22 AM 29.7461 -83.2872 306° West 177 204 4,100  Level Jacksonville Center
Thu 07:54:22 AM 29.7750 -83.3328 306° West 177 204 4,100  Level Jacksonville Center
Thu 07:55:22 AM 29.8022 -83.3783 305° West 177 204 4,100  Level Jacksonville Center
Thu 07:56:22 AM 29.8311 -83.4242 306° West 177 204 4,100  Level Jacksonville Center
Thu 07:57:22 AM 29.8603 -83.4697 306° West 177 204 4,100  Level Jacksonville Center
Thu 07:58:22 AM 29.8872 -83.5156 304° West 177 204 4,100  Level Jacksonville Center
Thu 07:59:22 AM 29.9139 -83.5611 304° West 177 204 4,100  Level Jacksonville Center
Thu 08:00:22 AM 29.9450 -83.6069 308° West 177 204 4,100  Level Jacksonville Center
Thu 08:01:22 AM 29.9700 -83.6528 302° West 177 204 4,100 -50 Level Jacksonville Center
Thu 08:02:22 AM 29.9989 -83.6983 306° West 177 204 4,000  Descending Jacksonville Center
Thu 08:03:22 AM 30.0278 -83.7442 306° West 177 204 4,100  Climbing Jacksonville Center
Thu 08:04:22 AM 30.0547 -83.7878 306° West 177 204 4,000  Descending Jacksonville Center
Thu 08:05:22 AM 30.0836 -83.8336 306° West 177 204 4,100 50 Climbing Jacksonville Center
Thu 08:06:22 AM 30.1103 -83.8819 303° West 177 204 4,100  Level Jacksonville Center
Thu 08:07:22 AM 30.1369 -83.9278 304° West 172 198 4,100 -100 Level Jacksonville Center
Thu 08:08:22 AM 30.1658 -83.9736 306° West 172 198 3,900 -350 Descending Jacksonville Center
Thu 08:09:22 AM 30.1947 -84.0222 305° West 177 204 3,400 -500 Descending Jacksonville Center
Thu 08:10:22 AM 30.2233 -84.0728 303° West 182 209 2,900 -500 Descending Jacksonville Center
Thu 08:11:22 AM 30.2542 -84.1261 304° West 192 221 2,400 -500 Descending Jacksonville Center
Thu 08:13:00 AM 30.3025 -84.1954 308° West  Level FlightAware Approximate
Thu 08:20:00 AM 30.3833 -84.3500 295° West  Level FlightAware Approximate
Thu 08:21:00 AM 30.3967 -84.3509 North  Level Estimated
Thu 08:22:00 AM 30.3967 -84.3509 295° West  Level Estimated
Thu 08:23:00 AM 30.3967 -84.3509 177° South  Level Estimated
Thu 08:24:00 AM 30.3967 -84.3509 295° West  Level Estimated
Thu 08:25:00 AM 30.3967 -84.3509 177° South  Level Estimated

Login

Don't have an account? Register now (free) for customized features, flight alerts, and more!